createdAt,value
2023-02-18T00:01:34.901Z,71.49
2023-02-18T00:04:01.912Z,71.56
2023-02-18T00:06:34.081Z,71.45
2023-02-18T00:09:02.608Z,71.43
2023-02-18T00:11:32.315Z,71.45
2023-02-18T00:14:02.449Z,71.52
2023-02-18T00:16:31.058Z,71.49
2023-02-18T00:19:03.571Z,71.68
2023-02-18T00:21:32.725Z,71.77
2023-02-18T00:23:59.904Z,71.22
2023-02-18T00:26:27.654Z,71.60
2023-02-18T00:28:54.942Z,71.48
2023-02-18T00:31:25.740Z,71.54
2023-02-18T00:33:53.324Z,71.70
2023-02-18T00:36:23.331Z,71.63
2023-02-18T00:38:54.946Z,71.46
2023-02-18T00:41:24.740Z,71.59
2023-02-18T00:43:51.915Z,71.26
2023-02-18T00:46:20.388Z,71.29
2023-02-18T00:48:47.957Z,71.22
2023-02-18T00:51:14.967Z,71.10
2023-02-18T00:53:43.619Z,71.10
2023-02-18T00:56:10.926Z,70.84
2023-02-18T00:58:38.540Z,70.73
2023-02-18T01:01:07.938Z,71.16
2023-02-18T01:03:35.111Z,70.61
2023-02-18T01:06:02.568Z,70.66
2023-02-18T01:08:30.237Z,70.57
2023-02-18T01:11:13.802Z,70.79
2023-02-18T01:13:41.700Z,70.80
2023-02-18T01:16:09.719Z,70.69
2023-02-18T01:18:37.495Z,70.95
2023-02-18T01:21:05.663Z,71.13
2023-02-18T01:23:32.511Z,71.04
2023-02-18T01:25:59.542Z,71.22
2023-02-18T01:28:27.691Z,71.05
2023-02-18T01:30:55.026Z,70.85
2023-02-18T01:33:22.662Z,71.51
2023-02-18T01:35:52.112Z,71.94
2023-02-18T01:38:19.002Z,71.66
2023-02-18T01:40:51.754Z,71.93
2023-02-18T01:43:20.594Z,71.83
2023-02-18T01:46:00.700Z,72.04
2023-02-18T01:48:35.342Z,71.84
2023-02-18T01:51:11.345Z,71.93
2023-02-18T01:53:49.133Z,72.28
2023-02-18T01:56:26.756Z,72.29
2023-02-18T01:59:00.278Z,72.20
2023-02-18T02:01:29.153Z,72.29
2023-02-18T02:03:56.009Z,71.84
2023-02-18T02:06:25.326Z,71.75
2023-02-18T02:08:58.848Z,71.53
2023-02-18T02:12:06.180Z,71.25
2023-02-18T02:14:56.876Z,71.34
2023-02-18T02:17:39.814Z,71.48
2023-02-18T02:20:57.957Z,71.35
2023-02-18T02:24:08.998Z,71.52
2023-02-18T02:27:15.017Z,71.65
2023-02-18T02:30:35.325Z,72.11
2023-02-18T02:33:37.776Z,71.87
2023-02-18T02:36:14.428Z,72.29
2023-02-18T02:38:56.289Z,72.14
2023-02-18T02:41:42.362Z,72.05
2023-02-18T02:44:21.213Z,72.06
2023-02-18T02:46:55.238Z,72.20
2023-02-18T02:49:38.060Z,72.38
2023-02-18T02:52:15.121Z,72.27
2023-02-18T02:54:42.355Z,72.36
2023-02-18T02:57:45.340Z,72.30
2023-02-18T03:00:21.785Z,72.25
2023-02-18T03:03:29.803Z,72.33
2023-02-18T03:06:23.527Z,72.39
2023-02-18T03:09:06.805Z,72.57
2023-02-18T03:11:47.154Z,72.58
2023-02-18T03:14:28.584Z,72.46
2023-02-18T03:17:04.882Z,72.85
2023-02-18T03:19:38.434Z,73.02
2023-02-18T03:22:13.424Z,72.94
2023-02-18T03:24:46.539Z,73.18
2023-02-18T03:27:21.627Z,73.13
2023-02-18T03:29:57.583Z,73.31
2023-02-18T03:32:35.538Z,73.37
2023-02-18T03:35:09.105Z,73.41
2023-02-18T03:37:43.741Z,73.58
2023-02-18T03:40:13.764Z,73.99
2023-02-18T03:42:40.862Z,74.08
2023-02-18T03:45:08.289Z,74.21
2023-02-18T03:47:35.667Z,74.39
2023-02-18T03:50:02.587Z,74.54
2023-02-18T03:52:29.527Z,74.59
2023-02-18T03:54:56.360Z,75.06
2023-02-18T03:57:24.547Z,75.19
2023-02-18T03:59:51.324Z,75.52
2023-02-18T04:02:18.393Z,75.71
2023-02-18T04:04:45.276Z,76.14
2023-02-18T04:07:12.505Z,76.42
2023-02-18T04:09:59.456Z,76.76
2023-02-18T04:12:27.701Z,76.59
2023-02-18T04:14:55.019Z,76.78
2023-02-18T04:17:21.910Z,76.93
2023-02-18T07:00:57.822Z,71.45
2023-02-18T07:03:26.243Z,71.38
2023-02-18T07:05:53.092Z,71.25
2023-02-18T07:08:19.963Z,70.89
2023-02-18T07:10:46.946Z,71.08
2023-02-18T07:13:14.212Z,70.66
2023-02-18T07:15:41.347Z,70.37
2023-02-18T07:18:08.201Z,69.89
2023-02-18T07:20:36.501Z,69.85
2023-02-18T07:23:03.330Z,69.76
2023-02-18T07:25:30.326Z,69.29
2023-02-18T07:27:57.104Z,69.18
2023-02-18T07:30:24.366Z,69.08
2023-02-18T07:32:51.217Z,69.48
2023-02-18T07:35:18.578Z,68.56
2023-02-18T07:37:48.348Z,68.35
2023-02-18T07:40:19.634Z,68.19
2023-02-18T07:42:46.712Z,68.07
2023-02-18T07:45:14.715Z,67.89
2023-02-18T07:47:41.860Z,67.65
2023-02-18T07:50:10.455Z,67.41
2023-02-18T07:52:37.371Z,67.45
2023-02-18T07:55:06.524Z,67.22
2023-02-18T07:57:33.363Z,67.19
2023-02-18T08:00:00.302Z,66.92
2023-02-18T08:02:27.455Z,66.77
2023-02-18T08:04:54.953Z,66.77
2023-02-18T08:07:29.116Z,66.84
2023-02-18T08:09:55.962Z,66.65
2023-02-18T08:12:24.150Z,66.35
2023-02-18T08:19:24.819Z,66.24
2023-02-18T08:21:51.763Z,65.74
2023-02-18T08:24:18.807Z,65.45
2023-02-18T08:26:59.399Z,65.81
2023-02-18T08:29:29.730Z,65.25
2023-02-18T08:31:57.020Z,64.84
2023-02-18T08:34:49.843Z,64.46
2023-02-18T08:37:16.878Z,64.33
2023-02-18T08:39:43.944Z,64.33
2023-02-18T08:42:13.073Z,64.24
2023-02-18T08:44:52.099Z,64.02
2023-02-18T08:48:18.330Z,63.93
2023-02-18T08:53:37.581Z,63.79
2023-02-18T08:56:07.877Z,63.91
2023-02-18T08:58:35.243Z,63.82
2023-02-18T09:01:05.625Z,63.89
2023-02-18T09:03:33.184Z,63.76
2023-02-18T09:06:01.645Z,63.66
2023-02-18T09:08:29.137Z,63.46
2023-02-18T09:10:57.543Z,63.41
2023-02-18T09:13:25.587Z,63.17
2023-02-18T09:16:01.195Z,63.86
2023-02-18T09:18:29.905Z,64.26
2023-02-18T09:21:09.092Z,64.07
2023-02-18T09:23:36.715Z,64.40
2023-02-18T09:26:06.446Z,63.43
2023-02-18T09:28:33.757Z,63.53
2023-02-18T09:31:05.775Z,63.65
2023-02-18T09:33:36.974Z,64.08
2023-02-18T09:36:05.053Z,63.17
2023-02-18T09:38:34.624Z,62.70
2023-02-18T09:41:07.541Z,63.25
2023-02-18T09:43:41.215Z,63.07
2023-02-18T09:46:23.718Z,63.48
2023-02-18T09:48:53.847Z,63.65
2023-02-18T09:51:20.807Z,63.56
2023-02-18T09:53:48.114Z,62.61
2023-02-18T09:56:22.610Z,63.26
2023-02-18T09:58:50.883Z,63.41
2023-02-18T10:01:28.161Z,62.74
2023-02-18T10:04:01.317Z,63.46
2023-02-18T10:06:32.975Z,62.90
2023-02-18T10:09:04.637Z,63.22
2023-02-18T10:11:39.922Z,62.87
2023-02-18T10:14:13.745Z,62.33
2023-02-18T10:16:43.650Z,62.83
2023-02-18T10:19:24.189Z,62.06
2023-02-18T10:21:53.264Z,61.98
2023-02-18T10:24:30.522Z,61.96
2023-02-18T10:26:59.563Z,62.17
2023-02-18T10:29:28.362Z,61.90
2023-02-18T10:32:16.549Z,62.92
2023-02-18T10:35:00.318Z,63.68
2023-02-18T10:37:55.926Z,64.86
2023-02-18T10:45:45.528Z,63.99
2023-02-18T10:49:04.818Z,64.32
2023-02-18T10:51:37.508Z,65.76
2023-02-18T10:54:07.609Z,64.61
2023-02-18T10:56:40.502Z,64.69
2023-02-18T10:59:13.501Z,65.04
2023-02-18T11:01:43.356Z,64.71
2023-02-18T11:04:18.250Z,64.40
2023-02-18T11:06:50.963Z,64.83
2023-02-18T11:09:34.941Z,64.59
2023-02-18T11:12:08.754Z,64.60
2023-02-18T11:14:41.256Z,65.36
2023-02-18T11:17:17.039Z,65.12
2023-02-18T11:19:51.246Z,65.47
2023-02-18T11:22:24.633Z,65.95
2023-02-18T11:24:56.269Z,66.27
2023-02-18T11:27:30.897Z,66.56
2023-02-18T11:30:04.423Z,66.54
2023-02-18T11:32:36.745Z,67.40
2023-02-18T11:35:05.300Z,67.57
2023-02-18T11:37:37.804Z,67.62
2023-02-18T11:40:06.840Z,66.99
2023-02-18T11:42:34.407Z,66.75
2023-02-18T11:45:02.443Z,66.45
2023-02-18T11:47:35.356Z,66.48
2023-02-18T11:50:17.619Z,66.31
2023-02-18T11:52:48.876Z,66.49
2023-02-18T11:55:20.625Z,65.98
2023-02-18T11:57:55.877Z,66.43
2023-02-18T12:00:38.754Z,65.85
2023-02-18T12:03:22.581Z,66.32
2023-02-18T12:05:50.430Z,66.22
2023-02-18T12:08:27.371Z,66.71
2023-02-18T12:11:01.105Z,66.59
2023-02-18T12:13:36.845Z,66.53
2023-02-18T12:16:20.469Z,66.61
2023-02-18T12:19:26.260Z,66.77
2023-02-18T12:22:05.581Z,67.08
2023-02-18T12:24:56.279Z,66.89
2023-02-18T12:27:35.811Z,67.21
2023-02-18T12:30:34.204Z,67.31
2023-02-18T12:33:13.013Z,67.12
2023-02-18T12:36:24.986Z,66.97
2023-02-18T12:39:09.001Z,66.42
2023-02-18T12:46:22.930Z,66.24
2023-02-18T12:49:09.682Z,66.08
2023-02-18T12:51:52.933Z,66.46
2023-02-18T12:55:03.781Z,66.22
2023-02-18T12:57:45.634Z,65.74
2023-02-18T13:00:43.637Z,66.02
2023-02-18T13:04:06.522Z,65.21
2023-02-18T13:07:10.876Z,65.34
2023-02-18T13:10:48.212Z,65.97
2023-02-18T13:13:22.184Z,65.59
2023-02-18T13:15:55.354Z,65.16
2023-02-18T13:18:30.097Z,65.40
2023-02-18T13:21:05.567Z,65.37
2023-02-18T13:23:39.001Z,65.58
2023-02-18T13:26:12.635Z,65.48
2023-02-18T13:28:52.198Z,65.89
2023-02-18T13:31:36.187Z,65.39
2023-02-18T13:34:18.001Z,65.08
2023-02-18T13:37:03.197Z,65.17
2023-02-18T13:39:32.130Z,65.61
2023-02-18T13:42:35.721Z,65.13
2023-02-18T13:45:25.553Z,64.17
2023-02-18T13:47:54.614Z,64.65
2023-02-18T13:50:41.759Z,64.32
2023-02-18T13:53:28.616Z,64.68
2023-02-18T13:56:04.808Z,64.69
2023-02-18T13:58:41.645Z,64.04
2023-02-18T14:01:36.288Z,64.49
2023-02-18T14:04:34.503Z,64.29
2023-02-18T14:07:51.305Z,63.58
2023-02-18T14:10:33.145Z,62.77
2023-02-18T14:13:47.013Z,62.08
2023-02-18T14:16:20.160Z,61.66
2023-02-18T14:19:29.159Z,61.46
2023-02-18T14:22:27.160Z,61.77
2023-02-18T14:25:03.021Z,60.54
2023-02-18T14:27:29.944Z,60.79
2023-02-18T14:30:05.661Z,60.53
2023-02-18T14:32:34.922Z,60.45
2023-02-18T14:35:25.386Z,60.65
2023-02-18T14:38:42.573Z,59.63
2023-02-18T14:41:43.780Z,59.34
2023-02-18T14:44:43.047Z,58.59
2023-02-18T14:47:28.506Z,58.35
2023-02-18T14:50:01.028Z,57.91
2023-02-18T14:53:17.608Z,57.50
2023-02-18T14:55:48.800Z,56.97
2023-02-18T14:58:30.550Z,57.28
2023-02-18T15:00:57.776Z,57.16
2023-02-18T15:03:28.397Z,57.15
2023-02-18T15:05:56.956Z,57.53
2023-02-18T15:08:26.051Z,57.05
2023-02-18T15:11:01.525Z,57.38
2023-02-18T15:13:33.376Z,57.39
2023-02-18T15:16:09.000Z,57.23
2023-02-18T15:18:44.750Z,56.91
2023-02-18T15:21:24.530Z,57.25
2023-02-18T15:24:07.150Z,57.20
2023-02-18T15:26:48.683Z,56.69
2023-02-18T15:29:37.335Z,57.08
2023-02-18T15:32:16.500Z,56.94
2023-02-18T15:35:20.005Z,57.43
2023-02-18T15:37:58.456Z,57.76
2023-02-18T15:40:31.518Z,57.88
2023-02-18T15:43:22.300Z,57.58
2023-02-18T15:50:03.180Z,58.23
2023-02-18T15:52:33.634Z,58.86
2023-02-18T15:55:07.847Z,58.85
2023-02-18T15:57:37.559Z,59.11
2023-02-18T16:00:16.667Z,59.00
2023-02-18T16:02:55.770Z,58.95
2023-02-18T16:05:27.412Z,59.26
2023-02-18T16:08:01.766Z,59.28
2023-02-18T16:10:55.950Z,59.31
2023-02-18T16:13:26.436Z,59.53
2023-02-18T16:15:54.066Z,59.50
2023-02-18T16:18:37.901Z,59.59
2023-02-18T16:21:24.283Z,59.62
2023-02-18T16:23:55.076Z,60.40
2023-02-18T16:26:31.607Z,60.08
2023-02-18T16:29:13.851Z,59.92
2023-02-18T16:31:41.859Z,60.20
2023-02-18T16:34:09.072Z,60.34
2023-02-18T16:36:35.947Z,60.39
2023-02-18T16:39:03.204Z,60.77
2023-02-18T16:41:31.815Z,60.76
2023-02-18T16:43:58.866Z,60.81
2023-02-18T16:46:25.934Z,61.27
2023-02-18T16:48:55.363Z,61.55
2023-02-18T16:51:29.164Z,61.56
2023-02-18T16:53:56.818Z,61.97
2023-02-18T16:56:27.036Z,62.08
2023-02-18T16:58:55.392Z,61.94
2023-02-18T17:01:27.213Z,61.92
2023-02-18T17:03:55.125Z,62.28
2023-02-18T17:06:22.260Z,62.34
2023-02-18T17:08:51.744Z,62.53
2023-02-18T17:11:22.740Z,62.44
2023-02-18T17:13:50.645Z,62.53
2023-02-18T17:16:20.494Z,63.17
2023-02-18T17:18:47.864Z,63.59
2023-02-18T17:21:16.589Z,63.75
2023-02-18T17:23:44.842Z,64.19
2023-02-18T17:26:17.575Z,64.84
2023-02-18T17:28:44.551Z,65.69
2023-02-18T17:31:17.148Z,66.69
2023-02-18T17:33:46.840Z,67.53
2023-02-18T17:36:13.919Z,67.79
2023-02-18T17:38:41.110Z,67.90
2023-02-18T17:41:08.252Z,67.44
2023-02-18T17:43:35.167Z,67.12
2023-02-18T17:46:02.648Z,67.38
2023-02-18T17:48:30.313Z,67.21
2023-02-18T17:50:58.587Z,68.05
2023-02-18T17:53:25.438Z,68.32
2023-02-18T17:55:53.822Z,69.01
2023-02-18T17:58:20.776Z,68.48
2023-02-18T18:00:51.411Z,68.09
2023-02-18T18:03:19.102Z,67.78
2023-02-18T18:05:49.236Z,67.45
2023-02-18T18:08:18.216Z,67.68
2023-02-18T18:10:51.046Z,67.58
2023-02-18T18:13:23.286Z,67.45
2023-02-18T18:15:51.811Z,67.34
2023-02-18T18:18:20.057Z,67.93
2023-02-18T18:20:53.006Z,67.68
2023-02-18T18:23:22.518Z,67.38
2023-02-18T18:25:53.722Z,67.44
2023-02-18T18:28:20.687Z,67.54
2023-02-18T18:30:51.521Z,67.46
2023-02-18T18:33:21.630Z,68.52
2023-02-18T18:35:52.148Z,70.79
2023-02-18T18:38:24.620Z,72.22
2023-02-18T18:40:55.211Z,72.62
2023-02-18T18:43:25.377Z,73.51
2023-02-18T18:45:53.741Z,73.34
2023-02-18T18:48:27.771Z,73.29
2023-02-18T18:50:58.819Z,73.34
2023-02-18T18:53:30.525Z,73.52
2023-02-18T18:56:01.116Z,73.42
2023-02-18T18:58:28.265Z,73.56
2023-02-18T19:00:59.200Z,73.10
2023-02-18T19:03:28.436Z,72.44
2023-02-18T19:05:56.517Z,72.63
2023-02-18T19:08:24.418Z,71.82
2023-02-18T19:10:55.836Z,72.39
2023-02-18T19:13:26.474Z,72.56
2023-02-18T19:16:02.984Z,72.97
2023-02-18T19:18:30.579Z,72.49
2023-02-18T19:20:57.374Z,72.85
2023-02-18T19:23:24.327Z,73.28
2023-02-18T19:25:52.828Z,73.09
2023-02-18T19:28:20.813Z,73.11
2023-02-18T19:30:50.347Z,73.61
2023-02-18T19:33:18.008Z,72.98
2023-02-18T19:35:45.712Z,73.27
2023-02-18T19:38:15.490Z,72.83
2023-02-18T19:40:44.596Z,72.97
2023-02-18T19:43:13.657Z,73.20
2023-02-18T19:45:42.994Z,73.83
2023-02-18T19:48:11.620Z,73.94
2023-02-18T19:50:41.075Z,73.00
2023-02-18T19:53:08.440Z,72.65
2023-02-18T19:55:35.425Z,72.28
2023-02-18T19:58:02.282Z,71.76
2023-02-18T20:00:30.602Z,72.08
2023-02-18T20:02:58.150Z,71.64
2023-02-18T20:05:27.186Z,71.87
2023-02-18T20:07:54.068Z,72.19
2023-02-18T20:10:22.286Z,72.71
2023-02-18T20:12:52.943Z,73.30
2023-02-18T20:15:20.382Z,73.53
2023-02-18T20:17:53.641Z,74.14
2023-02-18T20:20:20.853Z,74.69
2023-02-18T20:22:47.781Z,75.08
2023-02-18T20:25:15.034Z,74.99
2023-02-18T20:27:58.264Z,75.21
2023-02-18T20:30:27.169Z,75.64
2023-02-18T20:32:57.013Z,76.26
2023-02-18T20:35:24.606Z,75.38
2023-02-18T20:37:51.768Z,74.85
2023-02-18T20:40:19.302Z,75.04
2023-02-18T20:42:51.297Z,75.25
2023-02-18T20:45:18.334Z,74.97
2023-02-18T20:47:45.254Z,75.64
2023-02-18T20:50:14.681Z,74.61
2023-02-18T20:52:41.564Z,74.89
2023-02-18T20:55:09.072Z,74.15
2023-02-18T20:57:36.376Z,74.36
2023-02-18T21:00:05.413Z,74.98
2023-02-18T21:02:32.357Z,75.52
2023-02-18T21:05:00.936Z,76.23
2023-02-18T21:07:29.319Z,77.91
2023-02-18T21:09:58.085Z,79.53
2023-02-18T21:12:27.602Z,79.06
2023-02-18T21:14:54.513Z,79.65
2023-02-18T21:17:21.381Z,80.19
2023-02-18T21:19:49.000Z,81.32
2023-02-18T21:22:15.899Z,81.47
2023-02-18T21:24:44.522Z,81.26
2023-02-18T21:27:11.366Z,82.03
2023-02-18T21:29:38.324Z,82.88
2023-02-18T21:32:05.475Z,82.89
2023-02-18T21:34:32.411Z,82.65
2023-02-18T21:36:59.247Z,83.99
2023-02-18T21:39:26.183Z,84.94
2023-02-18T21:41:54.585Z,85.00
2023-02-18T21:44:25.023Z,85.21
2023-02-18T21:46:56.889Z,85.20
2023-02-18T21:49:23.800Z,85.69
2023-02-18T21:51:52.184Z,85.48
2023-02-18T21:54:22.813Z,85.63
2023-02-18T21:56:51.320Z,85.92
2023-02-18T21:59:22.077Z,86.23
2023-02-18T22:01:56.148Z,85.86
2023-02-18T22:04:23.776Z,85.80
2023-02-18T22:06:50.758Z,85.83
2023-02-18T22:09:18.002Z,86.12
2023-02-18T22:11:45.257Z,86.32
2023-02-18T22:14:14.756Z,86.27
2023-02-18T22:16:44.185Z,86.00
2023-02-18T22:19:12.170Z,85.89
2023-02-18T22:21:39.109Z,86.30
2023-02-18T22:24:07.410Z,86.31
2023-02-18T22:26:34.621Z,86.84
2023-02-18T22:29:02.092Z,86.82
2023-02-18T22:31:31.518Z,87.06
2023-02-18T22:34:00.945Z,86.04
2023-02-18T22:36:29.317Z,85.67
2023-02-18T22:38:58.278Z,85.10
2023-02-18T22:41:27.472Z,84.98
2023-02-18T22:43:55.935Z,85.54
2023-02-18T22:46:23.455Z,84.56
2023-02-18T22:48:50.481Z,83.57
2023-02-18T22:51:22.740Z,83.61
2023-02-18T22:53:49.517Z,83.60
2023-02-18T22:56:19.407Z,85.18
2023-02-18T22:58:49.624Z,84.74
2023-02-18T23:01:22.424Z,86.19
2023-02-18T23:03:49.905Z,87.47
2023-02-18T23:06:20.562Z,86.44
2023-02-18T23:08:48.698Z,86.40
2023-02-18T23:11:18.987Z,85.63
2023-02-18T23:13:47.383Z,86.44
2023-02-18T23:16:15.138Z,85.10
2023-02-18T23:18:42.092Z,84.34
2023-02-18T23:21:15.513Z,85.06
2023-02-18T23:23:44.865Z,84.74
2023-02-18T23:26:12.560Z,84.67
2023-02-18T23:28:41.198Z,84.53
2023-02-18T23:31:09.068Z,84.59
2023-02-18T23:33:36.873Z,84.66
2023-02-18T23:36:10.337Z,84.19
2023-02-18T23:38:37.541Z,83.18
2023-02-18T23:41:07.330Z,82.68
2023-02-18T23:43:34.679Z,82.18
2023-02-18T23:46:01.630Z,83.05
2023-02-18T23:48:28.700Z,81.97
2023-02-18T23:51:00.310Z,82.41
2023-02-18T23:53:30.185Z,82.19
2023-02-18T23:56:07.344Z,82.21
2023-02-18T23:58:40.086Z,82.66
